createdAt,value
2019-05-07T00:00:29.686Z,98200.70
2019-05-07T00:01:34.151Z,98198.09
2019-05-07T00:02:40.163Z,98200.15
2019-05-07T00:03:43.268Z,98200.15
2019-05-07T00:04:46.377Z,98193.96
2019-05-07T00:05:49.179Z,98193.67
2019-05-07T00:06:52.792Z,98196.95
2019-05-07T00:07:55.794Z,98196.95
2019-05-07T00:08:58.844Z,98196.66
2019-05-07T00:10:04.070Z,98194.52
2019-05-07T00:11:08.566Z,98187.22
2019-05-07T00:12:12.593Z,98187.22
2019-05-07T00:13:15.536Z,98189.71
2019-05-07T00:14:18.312Z,98187.48
2019-05-07T00:15:23.025Z,98179.71
2019-05-07T00:16:26.409Z,98186.42
2019-05-07T00:17:29.216Z,98181.82
2019-05-07T00:18:32.452Z,98186.13
2019-05-07T00:19:38.288Z,98186.13
2019-05-07T00:20:42.387Z,98183.17
2019-05-07T00:21:45.427Z,98184.25
2019-05-07T00:22:48.664Z,98184.25
2019-05-07T00:23:53.210Z,98184.75
2019-05-07T00:24:56.469Z,98186.63
2019-05-07T00:25:59.707Z,98182.61
2019-05-07T00:27:02.942Z,98186.39
2019-05-07T00:28:06.846Z,98183.70
2019-05-07T00:29:09.927Z,98186.36
2019-05-07T00:30:12.920Z,98177.48
2019-05-07T00:31:16.080Z,98188.18
2019-05-07T00:32:18.942Z,98188.18
2019-05-07T00:33:22.683Z,98185.62
2019-05-07T00:34:30.205Z,98185.62
2019-05-07T00:35:42.789Z,98185.22
2019-05-07T00:37:22.018Z,98185.22
2019-05-07T00:38:28.130Z,98184.23
2019-05-07T00:39:52.885Z,98187.98
2019-05-07T00:41:09.368Z,98183.61
2019-05-07T00:42:32.739Z,98183.88
2019-05-07T00:43:37.805Z,98184.13
2019-05-07T00:44:57.411Z,98184.13
2019-05-07T00:46:14.975Z,98186.73
2019-05-07T00:47:17.769Z,98186.41
2019-05-07T00:48:20.564Z,98184.30
2019-05-07T00:49:25.185Z,98185.38
2019-05-07T00:50:33.136Z,98184.10
2019-05-07T00:51:36.555Z,98181.63
2019-05-07T00:52:39.738Z,98186.77
2019-05-07T00:53:42.558Z,98181.02
2019-05-07T00:54:45.349Z,98181.20
2019-05-07T00:55:48.421Z,98183.08
2019-05-07T00:56:52.099Z,98183.08
2019-05-07T00:57:55.063Z,98173.23
2019-05-07T00:58:57.865Z,98176.02
2019-05-07T01:00:02.139Z,98176.02
2019-05-07T01:01:06.118Z,98178.23
2019-05-07T01:02:09.294Z,98178.23
2019-05-07T01:03:12.815Z,98176.83
2019-05-07T01:04:16.273Z,98179.36
2019-05-07T01:05:20.003Z,98177.95
2019-05-07T01:06:26.007Z,98183.17
2019-05-07T01:07:27.929Z,98177.66
2019-05-07T01:08:32.185Z,98177.66
2019-05-07T01:09:35.428Z,98177.37
2019-05-07T01:10:49.078Z,98177.37
2019-05-07T01:11:43.095Z,98180.03
2019-05-07T01:12:46.434Z,98177.77
2019-05-07T01:13:51.878Z,98179.91
2019-05-07T01:14:54.125Z,98168.06
2019-05-07T01:15:56.931Z,98168.06
2019-05-07T01:17:02.206Z,98172.94
2019-05-07T01:18:04.724Z,98171.27
2019-05-07T01:19:07.509Z,98178.56
2019-05-07T01:20:12.584Z,98173.14
2019-05-07T01:21:22.704Z,98169.98
2019-05-07T01:22:25.481Z,98165.89
2019-05-07T01:23:28.347Z,98165.89
2019-05-07T01:24:32.218Z,98164.55
2019-05-07T01:25:36.482Z,98168.86
2019-05-07T01:26:42.397Z,98168.86
2019-05-07T01:27:44.406Z,98166.69
2019-05-07T01:29:06.352Z,98171.00
2019-05-07T01:30:12.819Z,98171.00
2019-05-07T01:31:14.971Z,98181.23
2019-05-07T01:32:32.970Z,98180.64
2019-05-07T01:33:46.876Z,98182.22
2019-05-07T01:35:02.581Z,98182.22
2019-05-07T01:36:17.695Z,98180.45
2019-05-07T01:37:23.213Z,98172.98
2019-05-07T01:38:28.443Z,98175.94
2019-05-07T01:39:32.659Z,98179.72
2019-05-07T01:40:36.080Z,98179.72
2019-05-07T01:41:38.878Z,98180.52
2019-05-07T01:42:42.313Z,98180.52
2019-05-07T01:43:45.326Z,98175.28
2019-05-07T01:44:48.393Z,98181.20
2019-05-07T01:45:52.965Z,98177.98
2019-05-07T01:46:55.661Z,98178.80
2019-05-07T01:47:59.643Z,98178.80
2019-05-07T01:49:03.073Z,98170.15
2019-05-07T01:50:06.942Z,98172.02
2019-05-07T01:51:10.018Z,98172.02
2019-05-07T01:52:13.461Z,98172.02
2019-05-07T01:53:16.318Z,98171.77
2019-05-07T01:54:19.206Z,98174.45
2019-05-07T01:55:24.619Z,98171.77
2019-05-07T01:56:27.496Z,98172.05
2019-05-07T01:57:32.450Z,98171.23
2019-05-07T01:58:37.722Z,98178.80
2019-05-07T01:59:42.458Z,98174.49
2019-05-07T02:00:44.989Z,98175.55
2019-05-07T02:01:49.041Z,98175.55
2019-05-07T02:02:56.906Z,98175.05
2019-05-07T02:04:12.766Z,98175.05
2019-05-07T02:05:27.131Z,98168.04
2019-05-07T02:06:40.162Z,98172.36
2019-05-07T02:07:47.843Z,98168.60
2019-05-07T02:09:27.372Z,98164.36
2019-05-07T02:10:42.797Z,98164.36
2019-05-07T02:11:47.035Z,98166.78
2019-05-07T02:12:49.828Z,98165.23
2019-05-07T02:13:53.011Z,98165.23
2019-05-07T02:14:55.884Z,98168.98
2019-05-07T02:16:02.935Z,98170.20
2019-05-07T02:17:05.382Z,98175.87
2019-05-07T02:18:08.241Z,98172.34
2019-05-07T02:19:12.675Z,98172.34
2019-05-07T02:20:16.318Z,98170.67
2019-05-07T02:21:19.151Z,98167.41
2019-05-07T02:22:22.669Z,98169.81
2019-05-07T02:23:25.910Z,98161.49
2019-05-07T02:24:28.769Z,98161.49
2019-05-07T02:25:32.740Z,98165.05
2019-05-07T02:26:35.838Z,98167.19
2019-05-07T02:27:38.687Z,98169.36
2019-05-07T02:28:42.638Z,98169.36
2019-05-07T02:29:46.890Z,98172.34
2019-05-07T02:30:49.726Z,98169.09
2019-05-07T02:31:53.411Z,98168.53
2019-05-07T02:32:56.204Z,98160.77
2019-05-07T02:33:58.990Z,98166.36
2019-05-07T02:35:05.384Z,98170.94
2019-05-07T02:36:14.359Z,98170.94
2019-05-07T02:37:19.224Z,98165.34
2019-05-07T02:38:43.842Z,98164.81
2019-05-07T02:39:53.106Z,98165.38
2019-05-07T02:41:17.309Z,98165.38
2019-05-07T02:42:23.796Z,98159.71
2019-05-07T02:43:43.524Z,98159.42
2019-05-07T02:45:04.616Z,98165.34
2019-05-07T02:46:31.039Z,98160.00
2019-05-07T02:47:27.965Z,98160.00
2019-05-07T02:48:34.603Z,98160.39
2019-05-07T02:49:53.651Z,98162.83
2019-05-07T02:51:03.903Z,98158.22
2019-05-07T02:52:14.581Z,98161.19
2019-05-07T02:53:25.784Z,98161.19
2019-05-07T02:54:47.564Z,98156.87
2019-05-07T02:55:53.037Z,98156.87
2019-05-07T02:56:55.817Z,98165.55
2019-05-07T02:57:58.612Z,98161.04
2019-05-07T02:59:04.058Z,98160.56
2019-05-07T03:00:09.168Z,98159.77
2019-05-07T03:01:13.903Z,98165.17
2019-05-07T03:02:17.110Z,98159.48
2019-05-07T03:03:19.926Z,98162.41
2019-05-07T03:04:25.080Z,98156.20
2019-05-07T03:05:27.314Z,98158.08
2019-05-07T03:06:30.138Z,98158.58
2019-05-07T03:07:33.758Z,98158.58
2019-05-07T03:08:36.674Z,98153.39
2019-05-07T03:09:42.822Z,98154.20
2019-05-07T03:10:43.918Z,98154.23
2019-05-07T03:11:46.771Z,98159.34
2019-05-07T03:12:49.605Z,98154.73
2019-05-07T03:13:53.690Z,98153.12
2019-05-07T03:14:56.901Z,98149.05
2019-05-07T03:16:03.540Z,98149.05
2019-05-07T03:17:04.580Z,98158.75
2019-05-07T03:18:07.374Z,98155.82
2019-05-07T03:19:13.380Z,98155.82
2019-05-07T03:20:26.670Z,98158.48
2019-05-07T03:21:48.169Z,98160.12
2019-05-07T03:22:53.810Z,98156.67
2019-05-07T03:24:14.646Z,98156.67
2019-05-07T03:25:23.129Z,98157.05
2019-05-07T03:26:28.362Z,98155.64
2019-05-07T03:27:34.220Z,98155.64
2019-05-07T03:28:53.391Z,98149.45
2019-05-07T03:30:04.462Z,98152.48
2019-05-07T03:31:16.579Z,98157.80
2019-05-07T03:32:40.242Z,98160.28
2019-05-07T03:34:06.300Z,98155.94
2019-05-07T03:35:37.224Z,98160.36
2019-05-07T03:36:46.759Z,98154.04
2019-05-07T03:37:50.366Z,98156.05
2019-05-07T03:38:53.812Z,98148.73
2019-05-07T03:39:57.164Z,98157.91
2019-05-07T03:41:03.400Z,98151.32
2019-05-07T03:42:04.933Z,98150.77
2019-05-07T03:43:07.741Z,98156.20
2019-05-07T03:44:44.465Z,98158.14
2019-05-07T03:46:19.571Z,98158.14
2019-05-07T03:47:26.462Z,98160.69
2019-05-07T03:48:33.223Z,98160.69
2019-05-07T03:49:35.971Z,98158.81
2019-05-07T03:50:38.834Z,98163.08
2019-05-07T03:51:44.185Z,98163.08
2019-05-07T03:52:46.925Z,98160.51
2019-05-07T03:53:49.879Z,98160.51
2019-05-07T03:54:55.677Z,98160.83
2019-05-07T03:55:58.565Z,98161.33
2019-05-07T03:57:11.193Z,98161.33
2019-05-07T03:58:14.247Z,98163.92
2019-05-07T03:59:15.091Z,98163.92
2019-05-07T04:00:18.288Z,98159.09
2019-05-07T04:01:23.947Z,98153.72
2019-05-07T04:02:37.152Z,98156.08
2019-05-07T04:03:34.034Z,98156.08
2019-05-07T04:04:35.962Z,98151.95
2019-05-07T04:05:38.768Z,98156.00
2019-05-07T04:06:43.563Z,98156.37
2019-05-07T04:07:46.739Z,98157.23
2019-05-07T04:08:49.618Z,98158.27
2019-05-07T04:09:53.440Z,98152.30
2019-05-07T04:10:56.468Z,98155.95
2019-05-07T04:11:59.331Z,98155.95
2019-05-07T04:13:04.462Z,98160.41
2019-05-07T04:14:06.944Z,98155.77
2019-05-07T04:15:09.709Z,98148.73
2019-05-07T04:16:13.556Z,98148.17
2019-05-07T04:17:22.246Z,98151.42
2019-05-07T04:18:23.758Z,98151.42
2019-05-07T04:19:26.186Z,98157.34
2019-05-07T04:20:29.728Z,98149.81
2019-05-07T04:21:34.442Z,98150.57
2019-05-07T04:22:37.014Z,98153.01
2019-05-07T04:23:39.871Z,98145.67
2019-05-07T04:24:53.111Z,98145.67
2019-05-07T04:26:09.089Z,98145.62
2019-05-07T04:27:23.651Z,98144.73
2019-05-07T04:28:43.783Z,98144.70
2019-05-07T04:29:46.610Z,98147.41
2019-05-07T04:30:49.433Z,98143.65
2019-05-07T04:31:53.310Z,98150.95
2019-05-07T04:32:58.362Z,98140.16
2019-05-07T04:34:04.089Z,98150.98
2019-05-07T04:35:15.097Z,98150.98
2019-05-07T04:36:27.518Z,98147.88
2019-05-07T04:37:32.971Z,98147.88
2019-05-07T04:38:35.244Z,98150.72
2019-05-07T04:39:42.326Z,98150.72
2019-05-07T04:40:44.911Z,98149.11
2019-05-07T04:41:47.683Z,98150.13
2019-05-07T04:42:53.549Z,98150.13
2019-05-07T04:43:54.926Z,98150.66
2019-05-07T04:44:58.558Z,98152.14
2019-05-07T04:46:03.163Z,98152.14
2019-05-07T04:47:06.247Z,98149.34
2019-05-07T04:48:09.060Z,98149.84
2019-05-07T04:49:14.969Z,98150.63
2019-05-07T04:50:34.753Z,98147.08
2019-05-07T04:51:33.598Z,98149.71
2019-05-07T04:52:36.994Z,98155.93
2019-05-07T04:53:42.641Z,98155.70
2019-05-07T04:54:44.312Z,98155.70
2019-05-07T04:55:47.499Z,98155.23
2019-05-07T04:56:53.433Z,98153.59
2019-05-07T04:57:56.643Z,98153.59
2019-05-07T04:59:03.673Z,98156.42
2019-05-07T05:00:07.949Z,98156.42
2019-05-07T05:01:13.817Z,98155.50
2019-05-07T05:02:19.587Z,98151.38
2019-05-07T05:03:30.616Z,98157.53
2019-05-07T05:04:35.127Z,98151.08
2019-05-07T05:05:38.048Z,98154.41
2019-05-07T05:06:42.490Z,98157.73
2019-05-07T05:07:45.310Z,98154.35
2019-05-07T05:08:52.061Z,98156.79
2019-05-07T05:09:53.393Z,98161.52
2019-05-07T05:10:58.571Z,98154.70
2019-05-07T05:12:02.707Z,98155.50
2019-05-07T05:13:05.740Z,98161.98
2019-05-07T05:14:08.644Z,98157.18
2019-05-07T05:15:12.617Z,98157.18
2019-05-07T05:16:25.939Z,98158.23
2019-05-07T05:17:29.069Z,98154.60
2019-05-07T05:18:32.927Z,98156.14
2019-05-07T05:19:38.683Z,98150.45
2019-05-07T05:20:47.514Z,98157.45
2019-05-07T05:21:57.441Z,98157.91
2019-05-07T05:24:22.129Z,98161.47
2019-05-07T05:25:32.291Z,98161.20
2019-05-07T05:26:35.190Z,98165.86
2019-05-07T05:27:38.006Z,98160.42
2019-05-07T05:28:41.931Z,98161.92
2019-05-07T05:29:45.322Z,98163.50
2019-05-07T05:34:24.819Z,98150.78
2019-05-07T05:35:28.079Z,98150.78
2019-05-07T05:36:33.693Z,98161.51
2019-05-07T05:37:36.603Z,98157.72
2019-05-07T05:38:42.406Z,98159.86
2019-05-07T05:39:45.079Z,98161.51
2019-05-07T05:40:47.933Z,98161.51
2019-05-07T05:41:58.998Z,98165.63
2019-05-07T05:43:14.400Z,98164.70
2019-05-07T05:44:24.806Z,98164.70
2019-05-07T05:45:42.607Z,98169.02
2019-05-07T05:46:47.864Z,98158.99
2019-05-07T05:48:01.947Z,98159.30
2019-05-07T05:48:55.219Z,98162.67
2019-05-07T05:50:01.981Z,98167.66
2019-05-07T05:51:22.791Z,98164.99
2019-05-07T05:52:44.652Z,98164.99
2019-05-07T05:53:55.634Z,98165.39
2019-05-07T05:55:05.475Z,98164.69
2019-05-07T05:56:18.923Z,98164.69
2019-05-07T05:57:42.411Z,98161.80
2019-05-07T05:58:53.387Z,98163.83
2019-05-07T06:00:17.878Z,98166.48
2019-05-07T06:01:39.846Z,98160.95
2019-05-07T06:03:14.716Z,98159.81
2019-05-07T06:04:25.398Z,98159.81
2019-05-07T06:05:44.205Z,98149.70
2019-05-07T06:07:15.130Z,98158.47
2019-05-07T06:08:28.087Z,98151.45
2019-05-07T06:09:43.633Z,98154.16
2019-05-07T06:10:59.801Z,98150.83
2019-05-07T06:12:14.596Z,98158.25
2019-05-07T06:13:32.254Z,98156.45
2019-05-07T06:14:53.922Z,98151.17
2019-05-07T06:16:14.125Z,98151.17
2019-05-07T06:17:34.431Z,98153.34
2019-05-07T06:18:56.223Z,98149.50
2019-05-07T06:20:22.581Z,98148.70
2019-05-07T06:21:42.410Z,98150.38
2019-05-07T06:23:02.754Z,98146.18
2019-05-07T06:24:08.745Z,98150.80
2019-05-07T06:25:15.952Z,98152.03
2019-05-07T06:26:19.752Z,98152.58
2019-05-07T06:27:22.985Z,98136.98
2019-05-07T06:28:26.489Z,98147.51
2019-05-07T06:29:33.843Z,98149.78
2019-05-07T06:30:39.060Z,98143.38
2019-05-07T06:31:46.341Z,98153.59
2019-05-07T06:32:49.260Z,98140.84
2019-05-07T06:33:52.430Z,98149.22
2019-05-07T06:35:06.486Z,98153.12
2019-05-07T06:36:12.485Z,98153.12
2019-05-07T06:37:15.152Z,98153.95
2019-05-07T06:38:22.023Z,98160.10
2019-05-07T06:39:28.417Z,98160.10
2019-05-07T06:40:52.005Z,98153.58
2019-05-07T06:42:12.759Z,98153.17
2019-05-07T06:43:29.558Z,98156.55
2019-05-07T06:44:32.436Z,98149.47
2019-05-07T06:45:42.266Z,98151.29
2019-05-07T06:46:45.669Z,98151.29
2019-05-07T06:47:52.067Z,98150.34
2019-05-07T06:48:54.957Z,98151.14
2019-05-07T06:49:57.826Z,98148.41
2019-05-07T06:51:03.100Z,98150.88
2019-05-07T06:52:06.373Z,98147.59
2019-05-07T06:53:11.895Z,98147.59
2019-05-07T06:54:17.683Z,98143.95
2019-05-07T06:55:22.758Z,98143.95
2019-05-07T06:56:25.290Z,98148.02
2019-05-07T06:57:29.257Z,98148.02
2019-05-07T06:58:41.895Z,98151.59
2019-05-07T06:59:49.013Z,98158.52
2019-05-07T07:01:02.313Z,98154.57
2019-05-07T07:02:22.581Z,98148.13
2019-05-07T07:03:35.325Z,98146.23
2019-05-07T07:05:02.683Z,98146.23
2019-05-07T07:06:29.393Z,98151.06
2019-05-07T07:07:52.659Z,98151.06
2019-05-07T07:09:17.073Z,98152.03
2019-05-07T07:10:38.973Z,98155.66
2019-05-07T07:11:55.419Z,98155.66
2019-05-07T07:12:58.690Z,98144.95
2019-05-07T07:14:02.609Z,98144.96
2019-05-07T07:15:08.735Z,98141.72
2019-05-07T07:16:13.044Z,98139.44
2019-05-07T07:17:17.764Z,98149.87
2019-05-07T07:18:23.004Z,98149.72
2019-05-07T07:19:27.127Z,98150.97
2019-05-07T07:20:32.459Z,98150.97
2019-05-07T07:21:35.553Z,98146.41
2019-05-07T07:22:38.724Z,98147.98
2019-05-07T07:23:42.992Z,98148.61
2019-05-07T07:24:45.948Z,98148.61
2019-05-07T07:25:49.046Z,98140.95
2019-05-07T07:26:52.848Z,98140.95
2019-05-07T07:27:58.912Z,98139.60
2019-05-07T07:29:02.093Z,98139.60
2019-05-07T07:30:14.424Z,98137.62
2019-05-07T07:31:35.219Z,98141.13
2019-05-07T07:32:39.298Z,98143.22
2019-05-07T07:33:44.779Z,98143.39
2019-05-07T07:34:50.394Z,98139.48
2019-05-07T07:35:53.700Z,98139.28
2019-05-07T07:39:52.356Z,98137.45
2019-05-07T07:41:02.315Z,98137.72
2019-05-07T07:42:06.416Z,98137.72
2019-05-07T07:43:09.623Z,98135.63
2019-05-07T07:44:13.328Z,98134.44
2019-05-07T07:45:23.004Z,98134.44
2019-05-07T07:46:28.813Z,98127.48
2019-05-07T07:47:32.958Z,98127.48
2019-05-07T07:48:37.942Z,98135.33
2019-05-07T07:49:42.047Z,98128.16
2019-05-07T07:50:44.957Z,98130.35
2019-05-07T07:51:47.747Z,98129.38
2019-05-07T07:52:52.953Z,98129.05
2019-05-07T07:54:02.477Z,98124.28
2019-05-07T07:55:05.430Z,98124.28
2019-05-07T07:56:27.824Z,98126.33
2019-05-07T07:57:43.831Z,98127.72
2019-05-07T07:58:56.346Z,98122.72
2019-05-07T08:00:15.477Z,98129.27
2019-05-07T08:01:23.424Z,98127.14
2019-05-07T08:02:54.983Z,98128.92
2019-05-07T08:03:58.257Z,98116.05
2019-05-07T08:05:02.133Z,98117.64
2019-05-07T08:06:05.077Z,98121.66
2019-05-07T08:07:17.117Z,98120.02
2019-05-07T08:08:26.142Z,98120.02
2019-05-07T08:09:32.415Z,98115.41
2019-05-07T08:10:33.522Z,98114.11
2019-05-07T08:11:36.330Z,98116.55
2019-05-07T08:12:39.175Z,98116.55
2019-05-07T08:13:42.546Z,98117.16
2019-05-07T08:14:45.811Z,98115.65
2019-05-07T08:15:48.603Z,98114.90
2019-05-07T08:16:52.877Z,98117.27
2019-05-07T08:17:55.767Z,98115.92
2019-05-07T08:19:21.519Z,98122.06
2019-05-07T08:20:22.921Z,98122.06
2019-05-07T08:21:28.577Z,98119.47
2019-05-07T08:22:35.022Z,98114.60
2019-05-07T08:23:38.923Z,98122.13
2019-05-07T08:24:42.588Z,98118.38
2019-05-07T08:25:49.486Z,98119.83
2019-05-07T08:26:52.349Z,98109.15
2019-05-07T08:27:58.270Z,98119.03
2019-05-07T08:29:02.906Z,98119.03
2019-05-07T08:30:06.694Z,98115.02
2019-05-07T08:31:29.110Z,98117.95
2019-05-07T08:32:49.222Z,98114.88
2019-05-07T08:34:02.108Z,98114.48
2019-05-07T08:35:18.499Z,98119.91
2019-05-07T08:36:22.601Z,98114.60
2019-05-07T08:37:26.120Z,98110.66
2019-05-07T08:38:32.780Z,98110.66
2019-05-07T08:39:35.738Z,98107.73
2019-05-07T08:40:38.961Z,98112.58
2019-05-07T08:41:42.271Z,98114.80
2019-05-07T08:42:47.391Z,98102.41
2019-05-07T08:44:07.322Z,98102.41
2019-05-07T08:45:13.017Z,98108.20
2019-05-07T08:46:32.759Z,98108.20
2019-05-07T08:47:48.270Z,98107.69
2019-05-07T08:48:52.911Z,98102.84
2019-05-07T08:49:55.874Z,98104.98
2019-05-07T08:50:58.824Z,98112.38
2019-05-07T08:52:03.568Z,98108.23
2019-05-07T08:53:08.959Z,98103.73
2019-05-07T08:54:12.362Z,98097.70
2019-05-07T08:55:15.325Z,98097.80
2019-05-07T08:56:22.446Z,98097.60
2019-05-07T08:57:25.367Z,98090.13
2019-05-07T08:58:28.291Z,98090.13
2019-05-07T08:59:32.290Z,98103.72
2019-05-07T09:00:35.082Z,98104.39
2019-05-07T09:01:38.828Z,98104.39
2019-05-07T09:02:42.060Z,98099.97
2019-05-07T09:03:47.658Z,98106.95
2019-05-07T09:04:53.190Z,98103.80
2019-05-07T09:05:56.014Z,98107.70
2019-05-07T09:07:02.765Z,98107.70
2019-05-07T09:08:05.204Z,98106.17
2019-05-07T09:09:08.583Z,98107.86
2019-05-07T09:10:13.164Z,98100.72
2019-05-07T09:11:16.326Z,98094.41
2019-05-07T09:12:23.012Z,98095.52
2019-05-07T09:13:25.692Z,98097.30
2019-05-07T09:14:31.548Z,98105.09
2019-05-07T09:15:34.291Z,98105.98
2019-05-07T09:16:38.199Z,98110.87
2019-05-07T09:17:43.533Z,98114.58
2019-05-07T09:18:48.583Z,98103.08
2019-05-07T09:19:54.696Z,98099.47
2019-05-07T09:21:02.052Z,98094.73
2019-05-07T09:22:04.822Z,98094.73
2019-05-07T09:23:12.236Z,98098.91
2019-05-07T09:24:15.200Z,98097.95
2019-05-07T09:25:19.118Z,98099.98
2019-05-07T09:26:26.049Z,98100.30
2019-05-07T09:27:43.114Z,98088.73
2019-05-07T09:28:55.893Z,98094.34
2019-05-07T09:30:29.407Z,98097.80
2019-05-07T09:31:52.524Z,98100.00
2019-05-07T09:33:23.368Z,98100.00
2019-05-07T09:34:28.152Z,98096.59
2019-05-07T09:35:39.869Z,98091.55
2019-05-07T09:36:51.917Z,98091.55
2019-05-07T09:37:55.122Z,98094.16
2019-05-07T09:39:02.805Z,98094.16
2019-05-07T09:40:02.785Z,98090.13
2019-05-07T09:41:06.465Z,98087.98
2019-05-07T09:42:09.398Z,98088.80
2019-05-07T09:43:12.256Z,98081.73
2019-05-07T09:44:18.070Z,98085.64
2019-05-07T09:45:22.488Z,98085.64
2019-05-07T09:46:25.534Z,98082.23
2019-05-07T09:47:29.112Z,98077.75
2019-05-07T09:48:35.514Z,98078.52
2019-05-07T09:49:43.062Z,98083.84
2019-05-07T09:50:46.437Z,98084.90
2019-05-07T09:51:51.955Z,98079.14
2019-05-07T09:52:54.737Z,98080.44
2019-05-07T09:53:58.018Z,98076.30
2019-05-07T09:55:13.785Z,98079.32
2019-05-07T09:56:08.065Z,98073.34
2019-05-07T09:57:25.429Z,98080.68
2019-05-07T09:58:15.522Z,98079.69
2019-05-07T09:59:21.716Z,98081.14
2019-05-07T10:00:24.813Z,98066.69
2019-05-07T10:01:28.024Z,98071.73
2019-05-07T10:02:32.028Z,98061.97
2019-05-07T10:03:38.070Z,98066.08
2019-05-07T10:04:41.789Z,98062.86
2019-05-07T10:05:44.726Z,98062.58
2019-05-07T10:06:51.922Z,98059.48
2019-05-07T10:07:54.532Z,98066.22
2019-05-07T10:09:04.171Z,98057.70
2019-05-07T10:10:12.011Z,98056.01
2019-05-07T10:11:19.246Z,98053.41
2019-05-07T10:12:33.146Z,98056.58
2019-05-07T10:14:08.772Z,98043.72
2019-05-07T10:15:12.307Z,98048.05
2019-05-07T10:16:22.453Z,98045.30
2019-05-07T10:17:40.204Z,98045.30
2019-05-07T10:18:48.331Z,98050.52
2019-05-07T10:19:53.852Z,98045.60
2019-05-07T10:20:57.326Z,98043.64
2019-05-07T10:22:02.297Z,98044.58
2019-05-07T10:23:14.161Z,98054.12
2019-05-07T10:24:14.259Z,98046.42
2019-05-07T10:25:19.769Z,98045.05
2019-05-07T10:26:22.968Z,98041.41
2019-05-07T10:27:25.752Z,98043.69
2019-05-07T10:28:32.094Z,98032.84
2019-05-07T10:29:38.631Z,98040.74
2019-05-07T10:42:58.059Z,98047.11
2019-05-07T10:44:02.574Z,98033.21
2019-05-07T10:45:13.506Z,98033.21
2019-05-07T10:46:38.956Z,98031.28
2019-05-07T10:47:49.084Z,98029.84
2019-05-07T10:49:22.693Z,98028.16
2019-05-07T10:50:36.289Z,98032.17
2019-05-07T10:51:32.311Z,98027.61
2019-05-07T10:52:35.981Z,98027.61
2019-05-07T10:53:42.382Z,98028.27
2019-05-07T10:54:56.818Z,98031.47
2019-05-07T10:55:51.470Z,98029.17
2019-05-07T10:56:54.814Z,98029.17
2019-05-07T10:57:57.759Z,98033.13
2019-05-07T10:59:03.067Z,98034.95
2019-05-07T11:00:07.664Z,98036.08
2019-05-07T11:01:13.225Z,98041.23
2019-05-07T11:02:21.976Z,98041.23
2019-05-07T11:03:29.002Z,98039.65
2019-05-07T11:04:40.204Z,98039.65
2019-05-07T11:05:37.056Z,98032.06
2019-05-07T11:06:41.737Z,98025.59
2019-05-07T11:07:44.812Z,98034.16
2019-05-07T11:08:47.710Z,98024.39
2019-05-07T11:09:52.529Z,98024.39
2019-05-07T11:10:55.475Z,98030.94
2019-05-07T11:11:59.213Z,98029.52
2019-05-07T11:13:02.643Z,98029.52
2019-05-07T11:14:05.799Z,98037.66
2019-05-07T11:15:08.618Z,98034.64
2019-05-07T11:16:13.597Z,98031.02
2019-05-07T11:17:33.007Z,98022.88
2019-05-07T11:18:42.743Z,98021.58
2019-05-07T11:19:45.581Z,98015.84
2019-05-07T11:20:52.872Z,98014.23
2019-05-07T11:21:55.145Z,98014.73
2019-05-07T11:22:57.978Z,98016.16
2019-05-07T11:24:03.223Z,98004.43
2019-05-07T11:25:11.891Z,98002.74
2019-05-07T11:26:22.117Z,97998.42
2019-05-07T11:27:29.147Z,97993.29
2019-05-07T11:28:33.810Z,97997.25
2019-05-07T11:29:36.762Z,97997.25
2019-05-07T11:30:39.561Z,97997.09
2019-05-07T11:31:45.441Z,97997.76
2019-05-07T11:32:48.683Z,97994.11
2019-05-07T11:33:52.099Z,97996.94
2019-05-07T11:34:57.473Z,97994.41
2019-05-07T11:36:02.097Z,97994.50
2019-05-07T11:37:05.688Z,97991.77
2019-05-07T11:38:20.418Z,97992.10
2019-05-07T11:39:14.775Z,97992.89
2019-05-07T11:40:19.965Z,97992.89
2019-05-07T11:41:33.248Z,97992.36
2019-05-07T11:43:05.866Z,97992.36
2019-05-07T11:44:17.036Z,97989.02
2019-05-07T11:45:29.126Z,97980.67
2019-05-07T11:46:44.407Z,97987.00
2019-05-07T11:47:51.990Z,97987.00
2019-05-07T11:49:04.707Z,97983.25
2019-05-07T11:50:35.352Z,97980.19
2019-05-07T11:51:46.247Z,97983.59
2019-05-07T11:52:54.289Z,97983.91
2019-05-07T11:54:12.608Z,97984.33
2019-05-07T11:55:19.627Z,97978.90
2019-05-07T11:56:22.454Z,97975.58
2019-05-07T11:57:25.692Z,97975.58
2019-05-07T11:58:28.514Z,97976.94
2019-05-07T11:59:32.611Z,97980.05
2019-05-07T12:00:43.566Z,97980.80
2019-05-07T12:01:56.613Z,97969.52
2019-05-07T12:02:59.526Z,97972.66
2019-05-07T12:04:02.344Z,97971.11
2019-05-07T12:05:05.947Z,97971.11
2019-05-07T12:06:12.354Z,97973.52
2019-05-07T12:07:18.462Z,97978.62
2019-05-07T12:08:22.398Z,97970.64
2019-05-07T12:09:26.336Z,97970.64
2019-05-07T12:10:29.368Z,97976.28
2019-05-07T12:11:32.413Z,97972.47
2019-05-07T12:12:35.279Z,97972.47
2019-05-07T12:13:38.209Z,97976.73
2019-05-07T12:14:41.204Z,97973.09
2019-05-07T12:15:43.988Z,97973.09
2019-05-07T12:19:38.342Z,97955.00
2019-05-07T12:20:41.858Z,97960.84
2019-05-07T12:21:46.883Z,97960.84
2019-05-07T12:22:51.965Z,97955.02
2019-05-07T12:23:54.147Z,97959.45
2019-05-07T12:24:57.022Z,97959.45
2019-05-07T12:26:02.171Z,97956.41
2019-05-07T12:27:05.133Z,97956.41
2019-05-07T12:28:13.077Z,97956.89
2019-05-07T12:29:15.321Z,97951.40
2019-05-07T12:30:23.220Z,97948.34
2019-05-07T12:31:43.725Z,97947.88
2019-05-07T12:33:20.592Z,97941.13
2019-05-07T12:34:32.565Z,97943.03
2019-05-07T12:35:35.445Z,97937.45
2019-05-07T12:36:42.077Z,97941.83
2019-05-07T12:37:47.857Z,97948.02
2019-05-07T12:38:49.734Z,97948.02
2019-05-07T12:39:53.066Z,97942.36
2019-05-07T12:40:55.935Z,97945.37
2019-05-07T12:42:01.034Z,97943.91
2019-05-07T12:43:04.683Z,97936.06
2019-05-07T12:44:08.610Z,97936.06
2019-05-07T12:45:14.097Z,97937.84
2019-05-07T12:46:17.126Z,97937.84
2019-05-07T12:47:25.422Z,97934.77
2019-05-07T12:48:31.397Z,97943.53
2019-05-07T12:49:34.230Z,97938.47
2019-05-07T12:50:37.632Z,97936.97
2019-05-07T12:52:03.874Z,97936.97
2019-05-07T12:53:25.429Z,97937.66
2019-05-07T12:54:53.072Z,97929.66
2019-05-07T12:56:02.575Z,97931.41
2019-05-07T12:57:09.131Z,97930.38
2019-05-07T12:58:12.810Z,97930.38
2019-05-07T12:59:15.753Z,97931.23
2019-05-07T13:00:36.477Z,97924.30
2019-05-07T13:02:21.674Z,97929.55
2019-05-07T13:03:24.578Z,97932.05
2019-05-07T13:04:32.441Z,97927.69
2019-05-07T13:05:33.511Z,97924.30
2019-05-07T13:06:46.015Z,97919.45
2019-05-07T13:07:59.973Z,97920.77
2019-05-07T13:09:02.638Z,97914.30
2019-05-07T13:10:11.212Z,97909.34
2019-05-07T13:11:14.184Z,97909.34
2019-05-07T13:12:21.629Z,97916.14
2019-05-07T13:13:23.234Z,97917.94
2019-05-07T13:14:32.193Z,97917.94
2019-05-07T13:15:35.372Z,97909.88
2019-05-07T13:16:45.855Z,97909.88
2019-05-07T13:17:51.955Z,97916.89
2019-05-07T13:18:55.080Z,97918.97
2019-05-07T13:19:58.640Z,97908.17
2019-05-07T13:21:07.861Z,97914.44
2019-05-07T13:22:13.012Z,97912.39
2019-05-07T13:23:15.667Z,97910.45
2019-05-07T13:24:22.856Z,97906.91
2019-05-07T13:25:28.118Z,97908.27
2019-05-07T13:26:32.225Z,97908.27
2019-05-07T13:27:36.209Z,97912.53
2019-05-07T13:28:44.477Z,97923.52
2019-05-07T13:29:48.038Z,97924.94
2019-05-07T13:30:53.865Z,97922.42
2019-05-07T13:31:57.463Z,97908.03
2019-05-07T13:33:03.415Z,97910.73
2019-05-07T13:34:25.344Z,97915.02